Terminal Aerodrome Forecast
Issued by NWS

Home | Current Version | Previous Version | Graphics & Text | Print | Product List | Glossary On
Versions: 1 2 3 4 5 6 7 8 9 10 11 12 13 14 15 16 17 18 19 20 21 22 23 24 25 26 27 28 29 30 31 32 33 34 35 36 37 38 39 40 41 42 43 44
000
FTUS43 KGRB 291538 AAB
TAFRHI
TAF AMD
KRHI 291538Z 2916/3012 04006KT P6SM OVC010
      TEMPO 2916/2917 SCT010
     FM291700 05007KT P6SM FEW014
     FM292300 05003KT P6SM SKC=

USA.gov is the U.S. government's official web portal to all federal, state and local government web resources and services.